createdAt,value
2023-05-02T00:02:11.613Z,16.70
2023-05-02T00:04:39.952Z,16.20
2023-05-02T00:07:08.150Z,17.57
2023-05-02T00:09:36.375Z,16.80
2023-05-02T00:12:04.520Z,16.73
2023-05-02T00:14:33.056Z,18.17
2023-05-02T00:17:01.120Z,17.03
2023-05-02T00:19:30.632Z,16.80
2023-05-02T00:21:58.670Z,16.63
2023-05-02T00:24:26.984Z,17.20
2023-05-02T00:26:55.059Z,16.73
2023-05-02T00:29:23.260Z,17.50
2023-05-02T00:31:51.374Z,17.20
2023-05-02T00:34:19.601Z,16.90
2023-05-02T00:36:49.455Z,16.83
2023-05-02T00:39:17.564Z,16.80
2023-05-02T00:41:45.762Z,16.33
2023-05-02T00:44:14.088Z,17.03
2023-05-02T00:46:42.409Z,16.80
2023-05-02T00:49:10.768Z,16.17
2023-05-02T00:51:39.238Z,16.53
2023-05-02T00:54:08.808Z,16.40
2023-05-02T00:56:37.147Z,16.60
2023-05-02T00:59:06.112Z,17.17
2023-05-02T01:01:46.381Z,17.07
2023-05-02T01:04:31.293Z,17.40
2023-05-02T01:07:11.005Z,16.87
2023-05-02T01:09:54.595Z,16.10
2023-05-02T01:12:29.610Z,17.23
2023-05-02T01:14:59.792Z,17.87
2023-05-02T01:17:32.655Z,17.17
2023-05-02T01:20:03.758Z,17.40
2023-05-02T01:22:32.628Z,18.53
2023-05-02T01:25:14.393Z,17.70
2023-05-02T01:27:52.560Z,17.30
2023-05-02T01:30:23.657Z,17.07
2023-05-02T01:32:53.643Z,17.10
2023-05-02T01:35:23.414Z,17.10
2023-05-02T01:37:54.478Z,17.13
2023-05-02T01:40:25.157Z,17.73
2023-05-02T01:42:54.868Z,17.20
2023-05-02T01:45:26.272Z,17.37
2023-05-02T01:47:55.305Z,17.13
2023-05-02T01:50:27.104Z,16.97
2023-05-02T01:52:56.352Z,16.40
2023-05-02T01:55:26.630Z,16.90
2023-05-02T01:57:57.802Z,19.10
2023-05-02T02:00:27.814Z,17.00
2023-05-02T02:02:58.220Z,16.97
2023-05-02T02:05:28.079Z,16.47
2023-05-02T02:07:56.226Z,18.27
2023-05-02T02:10:27.430Z,17.43
2023-05-02T02:13:01.665Z,17.50
2023-05-02T02:15:36.082Z,17.07
2023-05-02T02:18:11.105Z,17.03
2023-05-02T02:20:40.269Z,16.70
2023-05-02T02:23:10.616Z,16.73
2023-05-02T02:25:39.315Z,17.50
2023-05-02T02:28:08.452Z,17.13
2023-05-02T02:30:38.341Z,16.87
2023-05-02T02:33:06.622Z,17.00
2023-05-02T02:35:41.678Z,17.40
2023-05-02T02:38:16.256Z,17.10
2023-05-02T02:40:48.892Z,17.37
2023-05-02T02:43:25.046Z,16.60
2023-05-02T02:46:04.254Z,17.53
2023-05-02T02:48:37.137Z,17.03
2023-05-02T02:51:14.044Z,16.73
2023-05-02T02:53:52.172Z,17.10
2023-05-02T02:56:28.963Z,16.80
2023-05-02T02:59:01.745Z,16.70
2023-05-02T03:01:33.711Z,16.13
2023-05-02T03:04:04.400Z,16.90
2023-05-02T03:06:32.975Z,19.23
2023-05-02T03:09:01.692Z,18.13
2023-05-02T03:11:29.819Z,17.83
2023-05-02T03:13:57.937Z,18.23
2023-05-02T03:16:42.628Z,17.13
2023-05-02T03:19:10.794Z,16.97
2023-05-02T03:21:38.930Z,16.77
2023-05-02T03:24:07.381Z,18.03
2023-05-02T03:26:35.549Z,17.20
2023-05-02T03:29:03.676Z,16.23
2023-05-02T03:31:31.765Z,17.03
2023-05-02T03:34:01.288Z,16.43
2023-05-02T03:36:29.454Z,18.30
2023-05-02T03:38:57.540Z,17.60
2023-05-02T03:41:25.894Z,17.83
2023-05-02T03:43:54.017Z,18.03
2023-05-02T03:46:22.452Z,17.23
2023-05-02T03:48:50.757Z,17.17
2023-05-02T03:51:20.316Z,17.30
2023-05-02T03:53:48.389Z,17.90
2023-05-02T03:56:20.207Z,19.03
2023-05-02T03:58:49.379Z,18.63
2023-05-02T04:01:17.684Z,18.50
2023-05-02T04:03:45.908Z,19.67
2023-05-02T04:06:14.084Z,19.27
2023-05-02T04:08:43.560Z,19.27
2023-05-02T04:11:11.643Z,19.70
2023-05-02T04:13:39.743Z,20.50
2023-05-02T04:16:08.061Z,19.77
2023-05-02T04:18:36.142Z,20.57
2023-05-02T04:21:04.419Z,19.23
2023-05-02T04:23:32.507Z,19.83
2023-05-02T04:26:01.972Z,20.33
2023-05-02T04:28:30.126Z,19.43
2023-05-02T04:30:58.605Z,20.33
2023-05-02T04:33:26.711Z,19.17
2023-05-02T04:35:55.006Z,19.83
2023-05-02T04:38:23.263Z,20.23
2023-05-02T04:40:52.271Z,19.97
2023-05-02T04:43:24.330Z,19.57
2023-05-02T04:45:53.088Z,20.70
2023-05-02T04:48:21.749Z,21.80
2023-05-02T04:50:50.763Z,23.43
2023-05-02T04:53:18.880Z,21.10
2023-05-02T04:55:47.016Z,19.60
2023-05-02T04:58:15.552Z,19.93
2023-05-02T05:00:45.205Z,19.50
2023-05-02T05:03:13.334Z,20.60
2023-05-02T05:05:41.599Z,20.40
2023-05-02T05:08:10.114Z,21.00
2023-05-02T05:10:38.251Z,20.30
2023-05-02T05:13:06.334Z,20.87
2023-05-02T05:15:34.465Z,21.43
2023-05-02T05:18:04.021Z,20.93
2023-05-02T05:20:32.136Z,23.00
2023-05-02T05:23:00.298Z,23.10
2023-05-02T05:25:28.415Z,22.07
2023-05-02T05:27:57.127Z,22.00
2023-05-02T05:30:25.261Z,21.75
2023-05-02T05:32:53.463Z,21.63
2023-05-02T05:35:22.968Z,21.90
2023-05-02T05:37:51.257Z,21.17
2023-05-02T05:40:19.785Z,23.33
2023-05-02T05:42:48.087Z,23.30
2023-05-02T05:45:17.172Z,21.47
2023-05-02T05:47:45.517Z,22.20
2023-05-02T05:50:13.881Z,21.40
2023-05-02T05:52:43.395Z,21.50
2023-05-02T05:55:11.943Z,22.27
2023-05-02T05:57:40.066Z,21.47
2023-05-02T06:00:12.232Z,21.40
2023-05-02T06:02:40.365Z,22.00
2023-05-02T06:05:09.235Z,22.37
2023-05-02T06:07:37.428Z,22.67
2023-05-02T06:10:09.216Z,22.30
2023-05-02T06:12:37.356Z,23.20
2023-05-02T06:15:06.201Z,23.43
2023-05-02T06:17:34.304Z,23.37
2023-05-02T06:20:02.655Z,22.60
2023-05-02T06:22:31.091Z,23.40
2023-05-02T06:24:59.203Z,22.97
2023-05-02T06:27:28.665Z,24.13
2023-05-02T06:29:56.841Z,23.17
2023-05-02T06:32:24.981Z,24.33
2023-05-02T06:34:53.241Z,23.80
2023-05-02T06:37:21.855Z,24.83
2023-05-02T06:39:49.973Z,23.47
2023-05-02T06:42:18.011Z,26.10
2023-05-02T06:44:47.475Z,25.00
2023-05-02T06:47:15.900Z,25.13
2023-05-02T06:49:44.078Z,25.00
2023-05-02T06:52:12.282Z,27.33
2023-05-02T06:54:42.447Z,26.90
2023-05-02T06:57:11.118Z,25.83
2023-05-02T06:59:39.214Z,28.27
2023-05-02T07:02:11.657Z,26.50
2023-05-02T07:04:39.991Z,27.00
2023-05-02T07:07:08.228Z,28.07
2023-05-02T07:09:36.469Z,27.77
2023-05-02T07:12:06.727Z,28.17
2023-05-02T07:14:35.341Z,28.20
2023-05-02T07:17:03.964Z,30.50
2023-05-02T07:19:33.753Z,27.57
2023-05-02T07:22:04.750Z,27.73
2023-05-02T07:24:33.009Z,28.23
2023-05-02T07:27:01.625Z,28.70
2023-05-02T07:29:29.897Z,32.27
2023-05-02T07:31:58.689Z,28.37
2023-05-02T07:34:26.836Z,29.93
2023-05-02T07:36:56.301Z,30.30
2023-05-02T07:39:26.156Z,30.87
2023-05-02T07:41:55.567Z,31.17
2023-05-02T07:44:24.295Z,32.00
2023-05-02T07:46:53.681Z,32.30
2023-05-02T07:49:21.795Z,32.30
2023-05-02T07:51:49.939Z,34.50
2023-05-02T07:54:20.086Z,34.03
2023-05-02T07:56:48.978Z,34.90
2023-05-02T07:59:17.542Z,34.93
2023-05-02T08:01:45.971Z,34.50
2023-05-02T08:04:14.270Z,37.67
2023-05-02T08:06:42.613Z,37.70
2023-05-02T08:09:10.843Z,38.37
2023-05-02T08:11:40.333Z,38.30
2023-05-02T08:14:08.500Z,39.63
2023-05-02T08:16:37.070Z,39.37
2023-05-02T08:19:05.419Z,41.93
2023-05-02T08:21:33.611Z,41.17
2023-05-02T08:24:01.723Z,41.07
2023-05-02T08:26:30.057Z,41.17
2023-05-02T08:28:59.639Z,41.53
2023-05-02T08:31:27.847Z,44.83
2023-05-02T08:33:56.223Z,43.73
2023-05-02T08:36:24.404Z,42.20
2023-05-02T08:38:52.434Z,43.37
2023-05-02T08:41:21.043Z,41.67
2023-05-02T08:43:49.334Z,43.73
2023-05-02T08:46:19.374Z,42.33
2023-05-02T08:48:49.256Z,43.10
2023-05-02T08:53:54.525Z,42.30
2023-05-02T08:56:23.004Z,41.73
2023-05-02T08:58:51.192Z,43.20
2023-05-02T09:01:23.997Z,43.93
2023-05-02T09:03:52.794Z,41.97
2023-05-02T09:06:23.091Z,41.40
2023-05-02T09:08:53.431Z,39.10
2023-05-02T09:11:22.585Z,39.43
2023-05-02T09:13:53.223Z,38.97
2023-05-02T09:16:23.827Z,52.87
2023-05-02T09:18:53.882Z,70.07
2023-05-02T09:21:23.875Z,38.47
2023-05-02T09:23:53.546Z,36.53
2023-05-02T09:26:25.845Z,37.70
2023-05-02T09:28:55.925Z,37.97
2023-05-02T09:31:49.635Z,39.27
2023-05-02T09:34:18.317Z,40.80
2023-05-02T09:36:50.506Z,38.33
2023-05-02T09:39:21.472Z,40.07
2023-05-02T09:41:51.478Z,40.93
2023-05-02T09:44:22.020Z,40.47
2023-05-02T09:46:53.161Z,42.77
2023-05-02T09:49:39.662Z,40.50
2023-05-02T09:52:12.222Z,39.90
2023-05-02T09:54:40.347Z,38.97
2023-05-02T09:57:08.859Z,38.97
2023-05-02T09:59:37.072Z,38.63
2023-05-02T10:02:11.242Z,40.10
2023-05-02T10:04:41.104Z,37.50
2023-05-02T10:07:10.986Z,38.13
2023-05-02T10:09:44.023Z,35.17
2023-05-02T10:12:16.912Z,35.50
2023-05-02T10:14:50.796Z,35.53
2023-05-02T10:17:24.308Z,36.83
2023-05-02T10:19:58.166Z,35.40
2023-05-02T10:22:27.744Z,36.20
2023-05-02T10:24:59.177Z,36.70
2023-05-02T10:27:27.587Z,32.40
2023-05-02T10:29:57.215Z,33.63
2023-05-02T10:32:29.651Z,32.27
2023-05-02T10:34:59.247Z,31.73
2023-05-02T10:37:28.750Z,30.43
2023-05-02T10:39:57.246Z,32.00
2023-05-02T10:42:25.804Z,31.10
2023-05-02T10:44:54.146Z,29.90
2023-05-02T10:47:23.514Z,30.23
2023-05-02T10:49:54.746Z,29.53
2023-05-02T10:52:30.581Z,29.53
2023-05-02T10:55:19.768Z,29.40
2023-05-02T10:58:22.721Z,29.23
2023-05-02T11:00:51.100Z,29.40
2023-05-02T11:03:52.537Z,30.33
2023-05-02T11:06:22.754Z,29.33
2023-05-02T11:08:51.737Z,28.93
2023-05-02T11:11:42.784Z,28.37
2023-05-02T11:14:12.734Z,29.33
2023-05-02T11:17:09.984Z,29.17
2023-05-02T11:20:30.319Z,31.13
2023-05-02T11:23:23.242Z,28.50
2023-05-02T11:25:53.862Z,30.17
2023-05-02T11:28:48.298Z,27.30
2023-05-02T11:32:05.347Z,30.77
2023-05-02T11:34:46.780Z,30.70
2023-05-02T11:37:16.813Z,32.10
2023-05-02T11:39:47.833Z,30.50
2023-05-02T11:42:32.747Z,30.10
2023-05-02T11:45:02.965Z,30.20
2023-05-02T11:47:34.552Z,29.40
2023-05-02T11:50:06.112Z,28.40
2023-05-02T11:52:39.553Z,29.73
2023-05-02T11:55:12.068Z,29.10
2023-05-02T11:57:42.503Z,28.40
2023-05-02T12:00:13.076Z,29.13
2023-05-02T12:02:42.698Z,29.17
2023-05-02T12:05:13.134Z,30.30
2023-05-02T12:07:42.955Z,29.60
2023-05-02T12:10:14.393Z,29.73
2023-05-02T12:12:46.099Z,28.83
2023-05-02T12:15:14.401Z,29.03
2023-05-02T12:17:44.747Z,28.00
2023-05-02T12:20:14.003Z,30.80
2023-05-02T12:22:42.535Z,31.47
2023-05-02T12:25:12.519Z,32.00
2023-05-02T12:27:40.971Z,31.90
2023-05-02T12:30:10.119Z,33.80
2023-05-02T12:32:42.719Z,32.40
2023-05-02T12:35:22.937Z,32.17
2023-05-02T12:37:51.194Z,33.30
2023-05-02T12:40:20.954Z,32.77
2023-05-02T12:43:04.166Z,34.13
2023-05-02T12:45:34.423Z,33.50
2023-05-02T12:48:03.072Z,33.20
2023-05-02T12:50:38.836Z,35.03
2023-05-02T12:53:07.685Z,34.17
2023-05-02T12:55:37.887Z,33.93
2023-05-02T12:58:07.354Z,33.40
2023-05-02T13:00:37.804Z,33.70
2023-05-02T13:03:06.993Z,32.10
2023-05-02T13:05:35.469Z,31.60
2023-05-02T13:08:04.096Z,34.77
2023-05-02T13:10:32.491Z,32.43
2023-05-02T13:13:02.923Z,31.90
2023-05-02T13:15:31.514Z,32.30
2023-05-02T13:17:59.723Z,35.03
2023-05-02T13:20:28.172Z,35.37
2023-05-02T13:22:56.234Z,32.93
2023-05-02T13:25:24.403Z,32.17
2023-05-02T13:27:52.669Z,33.37
2023-05-02T13:30:22.641Z,32.37
2023-05-02T13:32:50.829Z,31.77
2023-05-02T13:35:19.268Z,31.40
2023-05-02T13:37:48.018Z,30.40
2023-05-02T13:40:16.380Z,30.10
2023-05-02T13:42:45.064Z,28.30
2023-05-02T13:45:14.671Z,28.90
2023-05-02T13:47:45.259Z,28.00
2023-05-02T13:50:13.604Z,29.70
2023-05-02T13:52:41.824Z,28.93
2023-05-02T13:55:10.933Z,28.27
2023-05-02T13:57:39.191Z,28.77
2023-05-02T14:00:09.868Z,29.80
2023-05-02T14:02:39.579Z,27.97
2023-05-02T14:05:11.015Z,28.53
2023-05-02T14:07:39.323Z,31.83
2023-05-02T14:10:08.723Z,29.10
2023-05-02T14:12:37.999Z,29.50
2023-05-02T14:15:07.043Z,30.13
2023-05-02T14:17:35.277Z,30.40
2023-05-02T14:20:03.768Z,28.97
2023-05-02T14:22:33.484Z,27.37
2023-05-02T14:25:01.750Z,25.20
2023-05-02T14:27:29.945Z,25.27
2023-05-02T14:29:58.265Z,22.17
2023-05-02T14:32:26.589Z,23.40
2023-05-02T14:34:54.819Z,23.83
2023-05-02T14:37:24.445Z,23.67
2023-05-02T14:39:56.227Z,25.53
2023-05-02T14:42:24.544Z,24.57
2023-05-02T14:44:53.527Z,25.87
2023-05-02T14:47:22.696Z,26.20
2023-05-02T14:49:51.076Z,25.47
2023-05-02T14:52:19.296Z,24.10
2023-05-02T14:54:47.405Z,24.10
2023-05-02T14:57:17.031Z,23.17
2023-05-02T14:59:45.478Z,22.80
2023-05-02T15:02:13.668Z,24.33
2023-05-02T15:04:41.950Z,24.57
2023-05-02T15:07:10.369Z,23.93
2023-05-02T15:09:38.483Z,25.43
2023-05-02T15:12:07.009Z,23.53
2023-05-02T15:14:36.734Z,23.27
2023-05-02T15:17:05.229Z,22.80
2023-05-02T15:19:33.413Z,23.80
2023-05-02T15:22:01.724Z,24.07
2023-05-02T15:24:29.876Z,24.27
2023-05-02T15:26:58.113Z,23.73
2023-05-02T15:29:26.459Z,22.90
2023-05-02T15:31:56.003Z,22.83
2023-05-02T15:34:24.169Z,23.47
2023-05-02T15:36:52.427Z,22.10
2023-05-02T15:39:22.724Z,20.30
2023-05-02T15:41:50.850Z,20.20
2023-05-02T15:44:19.238Z,20.43
2023-05-02T15:46:49.483Z,19.40
2023-05-02T15:49:19.143Z,20.40
2023-05-02T15:51:47.314Z,20.97
2023-05-02T15:54:15.531Z,20.80
2023-05-02T15:56:43.591Z,20.30
2023-05-02T15:59:11.753Z,21.77
2023-05-02T16:01:40.043Z,27.27
2023-05-02T16:04:09.692Z,22.10
2023-05-02T16:06:41.547Z,22.80
2023-05-02T16:09:10.299Z,18.83
2023-05-02T16:11:38.442Z,17.40
2023-05-02T16:14:06.660Z,17.87
2023-05-02T16:16:35.566Z,18.00
2023-05-02T16:19:03.877Z,18.60
2023-05-02T16:21:32.096Z,18.60
2023-05-02T16:24:02.181Z,17.93
2023-05-02T16:26:30.388Z,17.10
2023-05-02T16:28:58.760Z,15.53
2023-05-02T16:31:27.123Z,16.33
2023-05-02T16:33:55.313Z,15.90
2023-05-02T16:36:23.616Z,14.70
2023-05-02T16:38:52.421Z,14.60
2023-05-02T16:41:22.184Z,14.93
2023-05-02T16:43:51.321Z,14.60
2023-05-02T16:46:19.906Z,15.10
2023-05-02T16:48:48.595Z,14.90
2023-05-02T16:51:17.028Z,15.07
2023-05-02T16:53:46.295Z,14.33
2023-05-02T16:56:14.663Z,14.43
2023-05-02T16:58:44.982Z,13.20
2023-05-02T17:01:13.492Z,13.90
2023-05-02T17:03:42.148Z,13.00
2023-05-02T17:06:10.664Z,13.13
2023-05-02T17:08:39.430Z,13.67
2023-05-02T17:11:08.064Z,12.57
2023-05-02T17:13:36.787Z,12.80
2023-05-02T17:16:08.430Z,13.00
2023-05-02T17:18:37.400Z,13.27
2023-05-02T17:21:06.191Z,14.17
2023-05-02T17:23:34.685Z,13.57
2023-05-02T17:26:04.338Z,12.37
2023-05-02T17:28:32.724Z,13.17
2023-05-02T17:31:01.218Z,12.73
2023-05-02T17:33:30.759Z,12.87
2023-05-02T17:35:58.965Z,12.90
2023-05-02T17:38:27.459Z,13.00
2023-05-02T17:40:56.617Z,12.53
2023-05-02T17:43:24.763Z,12.07
2023-05-02T17:45:53.110Z,12.33
2023-05-02T17:48:21.394Z,12.93
2023-05-02T17:50:51.032Z,12.10
2023-05-02T17:53:19.361Z,12.82
2023-05-02T17:55:47.470Z,12.40
2023-05-02T17:58:16.066Z,12.03
2023-05-02T18:00:44.787Z,12.30
2023-05-02T18:03:13.057Z,11.87
2023-05-02T18:05:44.082Z,11.90
2023-05-02T18:08:13.670Z,12.03
2023-05-02T18:10:42.718Z,11.63
2023-05-02T18:13:10.948Z,12.17
2023-05-02T18:15:39.153Z,11.90
2023-05-02T18:18:07.725Z,11.30
2023-05-02T18:20:40.433Z,11.13
2023-05-02T18:23:08.576Z,12.33
2023-05-02T18:25:38.154Z,12.37
2023-05-02T18:28:06.610Z,12.93
2023-05-02T18:30:37.630Z,12.13
2023-05-02T18:33:06.412Z,12.40
2023-05-02T18:35:34.847Z,11.95
2023-05-02T18:38:03.478Z,12.60
2023-05-02T18:40:32.384Z,12.03
2023-05-02T18:43:01.976Z,12.27
2023-05-02T18:45:30.087Z,12.80
2023-05-02T18:47:58.230Z,12.33
2023-05-02T18:50:27.248Z,12.60
2023-05-02T18:52:55.345Z,12.50
2023-05-02T18:55:25.240Z,13.30
2023-05-02T18:57:53.847Z,13.60
2023-05-02T19:00:26.065Z,12.70
2023-05-02T19:02:55.120Z,13.40
2023-05-02T19:05:23.433Z,12.87
2023-05-02T19:07:51.487Z,13.43
2023-05-02T19:10:19.531Z,12.20
2023-05-02T19:12:47.875Z,13.63
2023-05-02T19:15:16.172Z,13.67
2023-05-02T19:17:45.739Z,13.77
2023-05-02T19:20:13.989Z,13.63
2023-05-02T19:22:42.644Z,14.20
2023-05-02T19:25:13.064Z,15.50
2023-05-02T19:27:42.104Z,15.37
2023-05-02T19:30:13.469Z,14.17
2023-05-02T19:32:41.869Z,14.43
2023-05-02T19:35:11.705Z,13.83
2023-05-02T19:37:39.819Z,14.30
2023-05-02T19:40:10.945Z,13.43
2023-05-02T19:42:39.454Z,13.50
2023-05-02T19:45:09.874Z,13.20
2023-05-02T19:47:38.542Z,14.10
2023-05-02T19:50:07.663Z,13.70
2023-05-02T19:52:39.094Z,14.13
2023-05-02T19:55:08.111Z,15.07
2023-05-02T19:57:36.253Z,14.10
2023-05-02T20:00:05.380Z,13.90
2023-05-02T20:02:33.810Z,13.50
2023-05-02T20:05:02.070Z,13.13
2023-05-02T20:07:30.231Z,13.97
2023-05-02T20:10:00.181Z,13.23
2023-05-02T20:12:29.078Z,13.63
2023-05-02T20:14:57.161Z,13.67
2023-05-02T20:17:25.709Z,13.60
2023-05-02T20:19:53.865Z,13.87
2023-05-02T20:22:22.055Z,13.17
2023-05-02T20:24:50.222Z,13.53
2023-05-02T20:27:19.621Z,13.67
2023-05-02T20:29:47.737Z,14.00
2023-05-02T20:32:16.854Z,13.27
2023-05-02T20:34:45.429Z,13.03
2023-05-02T20:37:14.142Z,12.87
2023-05-02T20:39:42.345Z,13.87
2023-05-02T20:42:10.799Z,13.27
2023-05-02T20:44:40.747Z,13.77
2023-05-02T20:47:09.257Z,15.00
2023-05-02T20:49:37.929Z,13.67
2023-05-02T20:52:06.460Z,13.77
2023-05-02T20:54:34.626Z,13.97
2023-05-02T20:57:03.647Z,14.67
2023-05-02T20:59:31.967Z,14.17
2023-05-02T21:02:01.730Z,14.00
2023-05-02T21:04:30.462Z,15.30
2023-05-02T21:06:58.623Z,14.97
2023-05-02T21:09:26.810Z,14.67
2023-05-02T21:11:54.955Z,14.70
2023-05-02T21:14:25.618Z,14.70
2023-05-02T21:16:54.420Z,14.43
2023-05-02T21:19:23.898Z,14.23
2023-05-02T21:21:51.979Z,14.90
2023-05-02T21:24:20.139Z,14.67
2023-05-02T21:26:48.384Z,15.33
2023-05-02T21:29:16.691Z,14.30
2023-05-02T21:31:44.854Z,14.83
2023-05-02T21:34:13.064Z,14.23
2023-05-02T21:36:43.357Z,14.57
2023-05-02T21:39:11.578Z,14.40
2023-05-02T21:41:39.697Z,14.30
2023-05-02T21:44:07.916Z,15.07
2023-05-02T21:46:36.243Z,15.00
2023-05-02T21:49:04.527Z,15.37
2023-05-02T21:51:34.503Z,15.43
2023-05-02T21:54:03.975Z,14.30
2023-05-02T21:56:32.153Z,15.17
2023-05-02T21:59:00.275Z,14.80
2023-05-02T22:01:28.413Z,15.60
2023-05-02T22:03:58.181Z,14.67
2023-05-02T22:06:26.791Z,14.33
2023-05-02T22:08:55.021Z,14.97
2023-05-02T22:11:25.594Z,16.10
2023-05-02T22:13:53.700Z,15.55
2023-05-02T22:16:21.888Z,15.67
2023-05-02T22:18:50.596Z,14.47
2023-05-02T22:21:19.416Z,15.33
2023-05-02T22:23:47.556Z,15.70
2023-05-02T22:26:15.776Z,15.27
2023-05-02T22:28:45.225Z,15.63
2023-05-02T22:31:14.178Z,14.40
2023-05-02T22:33:42.726Z,15.90
2023-05-02T22:36:10.905Z,15.73
2023-05-02T22:38:39.660Z,15.53
2023-05-02T22:41:07.839Z,15.50
2023-05-02T22:43:36.024Z,15.77
2023-05-02T22:46:05.721Z,14.87
2023-05-02T22:48:33.865Z,14.20
2023-05-02T22:51:01.975Z,14.70
2023-05-02T22:53:30.277Z,15.30
2023-05-02T22:55:58.394Z,15.10
2023-05-02T22:58:26.469Z,13.50
2023-05-02T23:00:54.565Z,14.40
2023-05-02T23:03:24.118Z,14.10
2023-05-02T23:05:52.401Z,13.43
2023-05-02T23:08:20.942Z,13.80
2023-05-02T23:10:49.117Z,14.23
2023-05-02T23:13:17.208Z,14.47
2023-05-02T23:15:45.270Z,14.33
2023-05-02T23:18:13.412Z,15.20
2023-05-02T23:20:42.924Z,14.70
2023-05-02T23:23:10.992Z,14.30
2023-05-02T23:25:39.753Z,14.80
2023-05-02T23:28:07.864Z,13.97
2023-05-02T23:30:36.018Z,13.77
2023-05-02T23:33:04.287Z,14.40
2023-05-02T23:35:32.898Z,14.43
2023-05-02T23:38:05.441Z,14.00
2023-05-02T23:40:33.719Z,14.40
2023-05-02T23:43:02.045Z,14.17
2023-05-02T23:45:30.148Z,13.97
2023-05-02T23:47:58.304Z,13.77
2023-05-02T23:50:26.693Z,14.03
2023-05-02T23:52:54.807Z,13.50
2023-05-02T23:55:24.275Z,14.40
2023-05-02T23:57:52.313Z,14.07
